Cervantes, Argentina
Current Conditions -  °F | °C
As of 3:00 AM on Monday 26 Jan 2015 (Local Time) from SAZN Reporting Station
Clear Clear  
Wind Chill: 25°   Ceiling: Unl
Heat Index: 26°   Visibility: 6mi
Dew Point: 10°   Wind: 7mph
Humidity: 39%   Direction: 230°SW
Pressure: 29.74"   Gusts: NA
Location:  39.06°S, 67.34°W
Report Text: SAZN 260600Z 23006KT CAVOK 25/10 Q1007
Loading
Personal Weather Stations






























Interactive Weather Map New forecast layout! Learn more

10-Day Weather Forecast

Advertisements
Track Severe Weather on mobile